createdAt,value
2019-04-22T00:02:28.586Z,15.12
2019-04-22T00:05:12.247Z,15.09
2019-04-22T00:07:59.309Z,15.05
2019-04-22T00:10:32.259Z,14.98
2019-04-22T00:12:59.810Z,14.94
2019-04-22T00:15:28.023Z,14.91
2019-04-22T00:18:07.736Z,14.84
2019-04-22T00:20:35.345Z,14.83
2019-04-22T00:23:03.681Z,14.78
2019-04-22T00:25:45.931Z,14.80
2019-04-22T00:28:19.961Z,14.76
2019-04-22T00:30:48.478Z,14.74
2019-04-22T00:33:25.546Z,14.70
2019-04-22T00:35:51.209Z,14.69
2019-04-22T00:38:23.983Z,14.67
2019-04-22T00:40:52.150Z,14.64
2019-04-22T00:43:24.351Z,14.61
2019-04-22T00:45:55.460Z,14.58
2019-04-22T00:48:38.427Z,14.55
2019-04-22T00:51:10.864Z,14.59
2019-04-22T00:56:17.085Z,14.51
2019-04-22T01:06:20.376Z,14.37
2019-04-22T01:08:57.787Z,14.35
2019-04-22T01:11:25.918Z,14.31
2019-04-22T01:13:50.040Z,14.27
2019-04-22T01:16:22.975Z,14.25
2019-04-22T01:18:55.152Z,14.18
2019-04-22T01:21:36.612Z,14.16
2019-04-22T01:23:59.866Z,14.13
2019-04-22T01:26:30.042Z,14.08
2019-04-22T01:28:59.619Z,14.03
2019-04-22T01:31:21.993Z,13.98
2019-04-22T01:34:08.184Z,13.96
2019-04-22T01:36:42.704Z,13.95
2019-04-22T01:39:16.347Z,13.93
2019-04-22T01:41:55.093Z,13.93
2019-04-22T01:44:29.693Z,13.84
2019-04-22T01:47:00.238Z,13.81
2019-04-22T01:49:30.208Z,13.79
2019-04-22T01:52:11.461Z,13.76
2019-04-22T01:54:35.438Z,13.73
2019-04-22T01:56:58.352Z,13.69
2019-04-22T01:59:29.162Z,13.67
2019-04-22T02:02:03.830Z,13.64
2019-04-22T02:04:36.848Z,13.59
2019-04-22T02:07:09.592Z,13.57
2019-04-22T02:09:37.800Z,13.54
2019-04-22T02:14:41.074Z,13.47
2019-04-22T02:19:52.037Z,13.43
2019-04-22T02:22:24.907Z,13.43
2019-04-22T02:24:46.856Z,13.40
2019-04-22T02:27:29.343Z,13.41
2019-04-22T02:29:47.653Z,13.40
2019-04-22T02:32:45.122Z,13.37
2019-04-22T02:37:22.922Z,13.32
2019-04-22T02:40:12.509Z,13.32
2019-04-22T02:44:53.236Z,13.30
2019-04-22T02:47:29.273Z,13.27
2019-04-22T03:00:18.430Z,13.19
2019-04-22T03:02:50.542Z,13.21
2019-04-22T03:07:41.148Z,13.26
2019-04-22T03:10:37.466Z,13.19
2019-04-22T03:12:41.812Z,13.16
2019-04-22T03:15:17.347Z,13.20
2019-04-22T03:17:49.519Z,13.23
2019-04-22T03:20:14.540Z,13.21
2019-04-22T03:22:55.102Z,13.17
2019-04-22T03:27:44.173Z,13.15
2019-04-22T03:30:51.080Z,13.15
2019-04-22T03:38:14.354Z,13.15
2019-04-22T03:48:05.258Z,13.08
2019-04-22T03:53:15.179Z,13.00
2019-04-22T03:58:32.326Z,12.92
2019-04-22T04:05:55.993Z,12.82
2019-04-22T04:08:22.453Z,12.81
2019-04-22T04:10:50.162Z,12.78
2019-04-22T04:18:20.802Z,12.93
2019-04-22T04:23:41.527Z,12.98
2019-04-22T04:25:57.272Z,12.97
2019-04-22T04:30:59.887Z,12.98
2019-04-22T04:33:54.144Z,12.89
2019-04-22T04:36:32.216Z,12.93
2019-04-22T04:38:47.448Z,12.97
2019-04-22T04:43:48.158Z,12.98
2019-04-22T04:46:16.586Z,13.00
2019-04-22T04:48:55.485Z,13.03
2019-04-22T04:53:41.391Z,13.16
2019-04-22T04:56:36.485Z,13.23
2019-04-22T05:01:35.511Z,13.33
2019-04-22T05:03:58.088Z,13.40
2019-04-22T05:06:21.691Z,13.47
2019-04-22T05:09:11.106Z,13.55
2019-04-22T05:14:03.806Z,13.74
2019-04-22T05:16:41.019Z,13.78
2019-04-22T05:19:03.831Z,13.89
2019-04-22T05:21:22.290Z,13.96
2019-04-22T05:24:05.552Z,14.06
2019-04-22T05:28:57.907Z,14.21
2019-04-22T05:31:35.209Z,14.31
2019-04-22T05:34:04.448Z,14.32
2019-04-22T05:36:38.460Z,14.44
2019-04-22T05:39:09.872Z,14.53
2019-04-22T05:41:39.550Z,14.63
2019-04-22T05:44:08.287Z,14.74
2019-04-22T05:46:36.082Z,14.84
2019-04-22T05:49:15.123Z,14.96
2019-04-22T05:54:14.603Z,15.14
2019-04-22T05:59:19.027Z,15.33
2019-04-22T06:01:54.993Z,15.41
2019-04-22T06:04:14.626Z,15.46
2019-04-22T06:06:46.872Z,15.58
2019-04-22T06:09:24.914Z,15.71
2019-04-22T06:11:51.964Z,15.80
2019-04-22T06:14:25.510Z,15.88
2019-04-22T06:17:03.672Z,15.94
2019-04-22T06:19:31.890Z,16.04
2019-04-22T06:22:06.886Z,16.20
2019-04-22T06:24:31.167Z,16.25
2019-04-22T06:29:38.246Z,16.41
2019-04-22T06:32:23.209Z,16.50
2019-04-22T06:34:42.186Z,16.63
2019-04-22T06:37:13.168Z,16.74
2019-04-22T06:42:13.766Z,17.08
2019-04-22T06:44:49.706Z,17.25
2019-04-22T06:47:27.311Z,17.57
2019-04-22T06:49:52.506Z,17.81
2019-04-22T06:52:18.317Z,18.05
2019-04-22T06:54:56.095Z,18.22
2019-04-22T06:57:24.316Z,18.42
2019-04-22T07:00:00.774Z,18.61
2019-04-22T07:02:36.114Z,18.71
2019-04-22T07:04:58.262Z,18.87
2019-04-22T07:07:26.645Z,19.05
2019-04-22T07:10:11.434Z,19.26
2019-04-22T07:12:30.252Z,19.50
2019-04-22T07:15:03.028Z,19.69
2019-04-22T07:17:39.444Z,19.95
2019-04-22T07:20:04.236Z,20.14
2019-04-22T07:22:38.937Z,20.37
2019-04-22T07:25:06.198Z,20.65
2019-04-22T07:27:37.340Z,20.85
2019-04-22T07:30:15.401Z,21.01
2019-04-22T07:33:00.667Z,21.24
2019-04-22T07:35:19.386Z,21.51
2019-04-22T07:38:00.591Z,21.67
2019-04-22T07:40:17.155Z,21.81
2019-04-22T07:45:23.406Z,22.15
2019-04-22T07:47:44.654Z,22.30
2019-04-22T07:52:52.093Z,22.77
2019-04-22T07:55:18.083Z,23.45
2019-04-22T07:57:51.787Z,24.10
2019-04-22T08:00:29.149Z,24.70
2019-04-22T08:02:59.143Z,25.23
2019-04-22T08:05:33.082Z,25.83
2019-04-22T08:08:08.455Z,26.48
2019-04-22T08:13:03.767Z,27.55
2019-04-22T08:18:15.730Z,28.73
2019-04-22T08:21:03.176Z,29.35
2019-04-22T08:23:16.413Z,29.96
2019-04-22T08:25:49.162Z,30.23
2019-04-22T08:28:17.559Z,30.30
2019-04-22T08:30:53.762Z,30.14
2019-04-22T08:38:36.767Z,31.17
2019-04-22T08:41:23.058Z,31.49
2019-04-22T08:44:02.423Z,31.68
2019-04-22T08:46:24.232Z,32.52
2019-04-22T08:56:37.188Z,34.21
2019-04-22T08:59:01.737Z,34.04
2019-04-22T09:01:27.094Z,33.70
2019-04-22T09:03:58.566Z,34.23
2019-04-22T09:06:39.677Z,34.83
2019-04-22T09:09:01.425Z,35.70
2019-04-22T09:11:41.918Z,36.00
2019-04-22T09:16:39.276Z,36.07
2019-04-22T09:19:10.647Z,36.44
2019-04-22T09:21:37.840Z,36.97
2019-04-22T09:24:10.509Z,37.44
2019-04-22T09:26:41.870Z,38.28
2019-04-22T09:29:22.470Z,39.04
2019-04-22T09:31:45.733Z,39.12
2019-04-22T09:34:14.080Z,39.44
2019-04-22T09:36:53.269Z,39.87
2019-04-22T09:39:28.291Z,39.45
2019-04-22T09:41:52.547Z,38.91
2019-04-22T09:44:21.809Z,39.16
2019-04-22T09:46:56.944Z,39.45
2019-04-22T09:49:28.756Z,39.18
2019-04-22T09:51:58.221Z,38.94
2019-04-22T09:54:36.996Z,39.05
2019-04-22T09:56:55.079Z,39.30
2019-04-22T09:59:32.231Z,39.60
2019-04-22T10:02:13.563Z,39.74
2019-04-22T10:04:34.970Z,40.80
2019-04-22T10:07:05.725Z,41.86
2019-04-22T10:09:59.716Z,41.34
2019-04-22T10:12:11.930Z,41.32
2019-04-22T10:14:39.961Z,41.79
2019-04-22T10:17:07.793Z,42.01
2019-04-22T10:19:42.250Z,43.15
2019-04-22T10:22:19.707Z,43.64
2019-04-22T10:24:44.984Z,43.57
2019-04-22T10:27:16.199Z,42.77
2019-04-22T10:29:54.263Z,42.56
2019-04-22T10:32:18.794Z,42.66
2019-04-22T10:34:37.934Z,43.52
2019-04-22T10:37:04.375Z,43.59
2019-04-22T10:39:39.912Z,43.75
2019-04-22T10:42:03.096Z,44.00
2019-04-22T10:44:33.250Z,44.33
2019-04-22T10:47:04.254Z,44.87
2019-04-22T10:49:34.412Z,44.57
2019-04-22T10:52:04.618Z,45.38
2019-04-22T10:54:35.665Z,46.03
2019-04-22T10:57:06.682Z,46.41
2019-04-22T10:59:36.559Z,46.04
2019-04-22T11:02:07.440Z,45.96
2019-04-22T11:04:38.592Z,44.92
2019-04-22T11:07:10.996Z,45.02
2019-04-22T11:09:50.740Z,45.61
2019-04-22T11:12:16.782Z,45.82
2019-04-22T11:14:43.332Z,45.68
2019-04-22T11:17:13.522Z,45.41
2019-04-22T11:19:43.584Z,46.24
2019-04-22T11:22:20.637Z,47.03
2019-04-22T11:24:44.752Z,47.63
2019-04-22T11:27:14.925Z,48.03
2019-04-22T11:29:45.689Z,47.95
2019-04-22T11:32:15.365Z,48.45
2019-04-22T11:34:45.005Z,48.09
2019-04-22T11:37:14.787Z,47.73
2019-04-22T11:39:44.858Z,47.70
2019-04-22T11:42:16.145Z,47.40
2019-04-22T11:44:47.215Z,47.14
2019-04-22T11:47:17.339Z,46.99
2019-04-22T11:49:47.951Z,46.66
2019-04-22T11:52:19.076Z,46.65
2019-04-22T11:54:50.692Z,46.82
2019-04-22T11:57:21.170Z,46.33
2019-04-22T11:59:51.132Z,47.49
2019-04-22T12:02:23.386Z,47.84
2019-04-22T12:04:54.020Z,48.86
2019-04-22T12:07:23.652Z,49.45
2019-04-22T12:09:53.409Z,49.03
2019-04-22T12:12:23.632Z,49.58
2019-04-22T12:14:54.416Z,48.51
2019-04-22T12:17:24.294Z,48.78
2019-04-22T12:19:54.029Z,48.80
2019-04-22T12:22:25.110Z,48.52
2019-04-22T12:24:56.572Z,48.06
2019-04-22T12:27:28.336Z,48.55
2019-04-22T12:29:58.735Z,48.88
2019-04-22T12:32:29.706Z,48.55
2019-04-22T12:34:59.865Z,48.62
2019-04-22T12:37:38.008Z,48.59
2019-04-22T12:40:02.539Z,48.33
2019-04-22T12:42:33.271Z,48.08
2019-04-22T12:45:04.223Z,47.57
2019-04-22T12:47:33.965Z,48.39
2019-04-22T12:50:12.675Z,48.68
2019-04-22T12:52:43.714Z,49.15
2019-04-22T12:55:09.972Z,50.08
2019-04-22T12:57:40.874Z,50.63
2019-04-22T13:00:13.637Z,50.25
2019-04-22T13:02:43.317Z,50.49
2019-04-22T13:05:14.300Z,51.12
2019-04-22T13:07:44.218Z,50.68
2019-04-22T13:10:15.722Z,50.62
2019-04-22T13:12:46.870Z,49.56
2019-04-22T13:15:18.281Z,49.31
2019-04-22T13:18:02.330Z,49.76
2019-04-22T13:20:22.008Z,50.16
2019-04-22T13:22:52.793Z,50.49
2019-04-22T13:25:26.331Z,50.60
2019-04-22T13:27:55.275Z,49.50
2019-04-22T13:30:26.334Z,48.91
2019-04-22T13:32:56.740Z,48.85
2019-04-22T13:35:27.916Z,48.54
2019-04-22T13:37:59.249Z,48.34
2019-04-22T13:40:29.005Z,47.86
2019-04-22T13:42:58.773Z,47.66
2019-04-22T13:45:29.755Z,48.58
2019-04-22T13:48:16.914Z,48.23
2019-04-22T13:51:18.583Z,47.96
2019-04-22T13:53:47.990Z,48.64
2019-04-22T13:55:59.254Z,48.41
2019-04-22T13:58:20.759Z,48.74
2019-04-22T14:00:38.456Z,48.00
2019-04-22T14:03:10.684Z,47.97
2019-04-22T14:05:42.645Z,48.10
2019-04-22T14:08:14.096Z,48.09
2019-04-22T14:10:44.704Z,48.50
2019-04-22T14:13:14.399Z,48.29
2019-04-22T14:15:48.692Z,47.86
2019-04-22T14:18:19.089Z,47.63
2019-04-22T14:20:49.229Z,46.48
2019-04-22T14:23:20.378Z,47.41
2019-04-22T14:25:50.841Z,46.96
2019-04-22T14:28:23.203Z,45.97
2019-04-22T14:30:52.670Z,45.32
2019-04-22T14:33:22.466Z,45.98
2019-04-22T14:35:52.122Z,45.84
2019-04-22T14:38:21.957Z,45.79
2019-04-22T14:40:52.019Z,45.74
2019-04-22T14:43:55.176Z,45.40
2019-04-22T14:46:36.931Z,44.78
2019-04-22T14:48:54.372Z,39.99
2019-04-22T14:51:13.978Z,34.75
2019-04-22T14:53:48.825Z,30.97
2019-04-22T14:55:58.380Z,28.62
2019-04-22T14:58:28.831Z,27.30
2019-04-22T15:00:59.117Z,26.30
2019-04-22T15:03:28.856Z,25.48
2019-04-22T15:05:59.885Z,24.95
2019-04-22T15:08:30.969Z,24.68
2019-04-22T15:11:02.078Z,24.17
2019-04-22T15:13:31.791Z,23.81
2019-04-22T15:16:05.833Z,23.57
2019-04-22T15:18:39.864Z,23.44
2019-04-22T15:21:11.234Z,23.32
2019-04-22T15:23:40.805Z,23.16
2019-04-22T15:26:10.649Z,23.02
2019-04-22T15:28:41.423Z,22.91
2019-04-22T15:31:11.368Z,22.85
2019-04-22T15:33:41.655Z,22.69
2019-04-22T15:36:12.300Z,22.63
2019-04-22T15:38:42.237Z,22.60
2019-04-22T15:41:12.478Z,22.46
2019-04-22T15:43:43.672Z,22.39
2019-04-22T15:46:14.104Z,22.38
2019-04-22T15:48:44.157Z,22.26
2019-04-22T15:51:14.784Z,22.16
2019-04-22T15:53:45.453Z,22.11
2019-04-22T15:56:16.728Z,21.99
2019-04-22T15:58:47.872Z,21.83
2019-04-22T16:01:25.592Z,21.77
2019-04-22T16:03:50.250Z,21.73
2019-04-22T16:06:22.378Z,21.61
2019-04-22T16:08:52.190Z,21.45
2019-04-22T16:11:22.283Z,21.44
2019-04-22T16:13:52.510Z,21.36
2019-04-22T16:16:22.905Z,21.31
2019-04-22T16:18:54.086Z,21.27
2019-04-22T16:21:32.711Z,21.15
2019-04-22T16:24:14.046Z,20.98
2019-04-22T16:26:46.600Z,20.86
2019-04-22T16:29:16.657Z,20.79
2019-04-22T16:31:47.573Z,20.66
2019-04-22T16:34:17.451Z,20.55
2019-04-22T16:36:47.193Z,20.67
2019-04-22T16:39:18.416Z,20.55
2019-04-22T16:41:48.661Z,20.50
2019-04-22T16:44:18.698Z,20.35
2019-04-22T16:46:49.839Z,20.25
2019-04-22T16:49:19.699Z,20.17
2019-04-22T16:51:49.930Z,20.02
2019-04-22T16:54:20.257Z,19.89
2019-04-22T16:56:52.292Z,19.74
2019-04-22T16:59:22.592Z,19.65
2019-04-22T17:02:10.622Z,19.56
2019-04-22T17:04:57.925Z,19.48
2019-04-22T17:07:29.853Z,19.35
2019-04-22T17:09:59.870Z,19.31
2019-04-22T17:12:41.895Z,19.19
2019-04-22T17:15:08.681Z,19.14
2019-04-22T17:17:43.162Z,19.07
2019-04-22T17:20:13.406Z,18.98
2019-04-22T17:22:43.771Z,18.96
2019-04-22T17:25:14.165Z,18.86
2019-04-22T17:27:43.809Z,18.79
2019-04-22T17:30:16.377Z,18.71
2019-04-22T17:32:48.266Z,18.62
2019-04-22T17:35:18.263Z,18.56
2019-04-22T17:37:50.868Z,18.46
2019-04-22T17:40:38.900Z,18.40
2019-04-22T17:43:28.416Z,18.30
2019-04-22T17:45:59.914Z,18.22
2019-04-22T17:48:53.548Z,18.13
2019-04-22T17:53:59.891Z,18.03
2019-04-22T17:56:32.511Z,17.94
2019-04-22T17:59:18.678Z,17.87
2019-04-22T18:01:33.275Z,17.87
2019-04-22T18:03:49.632Z,17.78
2019-04-22T18:06:44.182Z,17.73
2019-04-22T18:09:04.856Z,17.58
2019-04-22T18:12:00.975Z,17.48
2019-04-22T18:14:29.871Z,17.47
2019-04-22T18:16:49.962Z,17.39
2019-04-22T18:19:15.526Z,17.27
2019-04-22T18:21:44.684Z,17.20
2019-04-22T18:24:08.093Z,17.10
2019-04-22T18:26:47.604Z,17.04
2019-04-22T18:29:21.934Z,17.00
2019-04-22T18:31:43.857Z,16.94
2019-04-22T18:34:23.132Z,16.90
2019-04-22T18:36:51.072Z,16.85
2019-04-22T18:39:37.010Z,16.74
2019-04-22T18:42:00.521Z,16.71
2019-04-22T18:44:32.650Z,16.72
2019-04-22T18:47:03.677Z,16.64
2019-04-22T18:49:40.585Z,16.62
2019-04-22T18:52:18.331Z,16.55
2019-04-22T18:54:56.874Z,16.52
2019-04-22T18:57:27.359Z,16.53
2019-04-22T18:59:46.936Z,16.50
2019-04-22T19:02:18.079Z,16.42
2019-04-22T19:04:56.091Z,16.43
2019-04-22T19:07:44.043Z,16.35
2019-04-22T19:10:17.370Z,16.28
2019-04-22T19:13:03.581Z,16.27
2019-04-22T19:15:16.332Z,16.28
2019-04-22T19:17:54.336Z,16.19
2019-04-22T19:20:23.807Z,16.13
2019-04-22T19:22:53.818Z,16.08
2019-04-22T19:25:11.981Z,16.15
2019-04-22T19:27:48.292Z,16.11
2019-04-22T19:30:27.465Z,16.04
2019-04-22T19:32:51.464Z,16.00
2019-04-22T19:35:21.334Z,15.98
2019-04-22T19:37:46.641Z,15.92
2019-04-22T19:40:35.037Z,15.84
2019-04-22T19:43:04.015Z,15.77
2019-04-22T19:45:29.150Z,15.78
2019-04-22T19:48:06.566Z,15.71
2019-04-22T19:50:41.271Z,15.63
2019-04-22T19:53:10.700Z,15.60
2019-04-22T19:55:39.267Z,15.67
2019-04-22T19:58:07.324Z,15.58
2019-04-22T20:00:49.309Z,15.61
2019-04-22T20:03:36.382Z,15.55
2019-04-22T20:06:05.861Z,15.52
2019-04-22T20:08:35.257Z,15.50
2019-04-22T20:11:13.319Z,15.59
2019-04-22T20:13:42.754Z,15.54
2019-04-22T20:15:58.390Z,15.44
2019-04-22T20:18:50.228Z,15.38
2019-04-22T20:21:17.946Z,15.42
2019-04-22T20:23:38.215Z,15.31
2019-04-22T20:26:07.352Z,15.36
2019-04-22T20:28:46.889Z,15.34
2019-04-22T20:31:19.264Z,15.38
2019-04-22T20:33:56.338Z,15.35
2019-04-22T20:36:39.794Z,15.29
2019-04-22T20:38:51.103Z,15.24
2019-04-22T20:41:23.069Z,15.26
2019-04-22T20:43:59.457Z,15.28
2019-04-22T20:46:24.072Z,15.26
2019-04-22T20:49:00.530Z,15.28
2019-04-22T20:51:42.346Z,15.22
2019-04-22T20:54:02.247Z,15.24
2019-04-22T20:56:31.227Z,15.24
2019-04-22T20:59:01.990Z,15.24
2019-04-22T21:01:35.680Z,15.23
2019-04-22T21:03:53.487Z,15.27
2019-04-22T21:06:36.919Z,15.25
2019-04-22T21:09:12.125Z,15.19
2019-04-22T21:11:38.448Z,15.12
2019-04-22T21:14:07.684Z,15.08
2019-04-22T21:16:43.175Z,15.06
2019-04-22T21:19:26.248Z,15.11
2019-04-22T21:21:54.200Z,15.12
2019-04-22T21:24:09.263Z,15.16
2019-04-22T21:26:43.484Z,15.21
2019-04-22T21:29:17.262Z,15.18
2019-04-22T21:31:53.182Z,15.19
2019-04-22T21:34:20.638Z,15.23
2019-04-22T21:37:02.663Z,15.18
2019-04-22T21:39:26.305Z,15.17
2019-04-22T21:41:58.918Z,15.09
2019-04-22T21:44:32.356Z,15.04
2019-04-22T21:47:09.961Z,15.04
2019-04-22T21:49:37.237Z,15.06
2019-04-22T21:52:09.846Z,15.04
2019-04-22T21:54:45.437Z,15.02
2019-04-22T21:59:44.891Z,14.93
2019-04-22T22:02:28.013Z,14.93
2019-04-22T22:04:51.227Z,14.87
2019-04-22T22:07:13.956Z,14.85
2019-04-22T22:09:55.603Z,14.88
2019-04-22T22:12:28.913Z,14.88
2019-04-22T22:15:05.481Z,14.82
2019-04-22T22:17:31.040Z,14.86
2019-04-22T22:19:57.577Z,14.82
2019-04-22T22:22:51.889Z,14.79
2019-04-22T22:25:07.702Z,14.81
2019-04-22T22:27:38.511Z,14.77
2019-04-22T22:30:31.621Z,14.77
2019-04-22T22:32:40.182Z,14.73
2019-04-22T22:35:13.255Z,14.73
2019-04-22T22:37:37.522Z,14.69
2019-04-22T22:40:00.956Z,14.60
2019-04-22T22:42:33.735Z,14.60
2019-04-22T22:45:11.921Z,14.57
2019-04-22T22:47:44.300Z,14.54
2019-04-22T22:50:20.629Z,14.61
2019-04-22T22:53:11.600Z,14.56
2019-04-22T22:55:22.328Z,14.48
2019-04-22T22:57:59.868Z,14.51
2019-04-22T23:00:24.449Z,14.57
2019-04-22T23:03:17.037Z,14.57
2019-04-22T23:05:35.835Z,14.47
2019-04-22T23:08:04.083Z,14.42
2019-04-22T23:10:47.013Z,14.43
2019-04-22T23:13:20.455Z,14.47
2019-04-22T23:15:35.876Z,14.45
2019-04-22T23:17:47.893Z,14.46
2019-04-22T23:20:25.640Z,14.41
2019-04-22T23:23:13.776Z,14.38
2019-04-22T23:25:50.053Z,14.36
2019-04-22T23:28:12.511Z,14.32
2019-04-22T23:30:38.176Z,14.37
2019-04-22T23:33:20.071Z,14.35
2019-04-22T23:35:55.561Z,14.34
2019-04-22T23:38:31.986Z,14.32
2019-04-22T23:41:05.430Z,14.36
2019-04-22T23:43:40.884Z,14.34
2019-04-22T23:46:07.010Z,14.30
2019-04-22T23:48:30.192Z,14.36
2019-04-22T23:51:09.336Z,14.30
2019-04-22T23:56:07.862Z,14.31
2019-04-22T23:59:02.924Z,14.29
